createdAt,value
2022-10-23T00:00:43.551Z,73.01
2022-10-23T00:03:11.308Z,73.83
2022-10-23T00:05:39.655Z,73.61
2022-10-23T00:08:06.165Z,73.19
2022-10-23T00:10:32.588Z,73.58
2022-10-23T00:12:59.121Z,73.35
2022-10-23T00:15:25.535Z,73.00
2022-10-23T00:17:51.927Z,74.61
2022-10-23T00:20:19.886Z,75.21
2022-10-23T00:22:46.317Z,75.83
2022-10-23T00:25:12.783Z,75.65
2022-10-23T00:27:39.293Z,76.19
2022-10-23T00:30:07.061Z,74.36
2022-10-23T00:32:33.520Z,75.29
2022-10-23T00:34:59.948Z,75.62
2022-10-23T00:37:27.696Z,75.99
2022-10-23T00:39:54.120Z,76.20
2022-10-23T00:42:21.596Z,76.78
2022-10-23T00:45:12.101Z,76.49
2022-10-23T00:47:38.787Z,76.57
2022-10-23T00:50:06.164Z,76.63
2022-10-23T00:52:37.391Z,76.10
2022-10-23T00:55:04.804Z,74.21
2022-10-23T00:57:31.269Z,77.70
2022-10-23T00:59:57.720Z,75.40
2022-10-23T01:02:24.435Z,75.73
2022-10-23T01:04:51.228Z,74.94
2022-10-23T01:07:25.152Z,74.97
2022-10-23T01:09:58.118Z,75.54
2022-10-23T01:12:34.777Z,75.90
2022-10-23T01:15:09.754Z,76.02
2022-10-23T01:17:44.457Z,73.08
2022-10-23T01:20:25.133Z,75.82
2022-10-23T01:23:08.377Z,74.20
2022-10-23T01:25:52.954Z,77.17
2022-10-23T01:28:26.198Z,75.66
2022-10-23T01:30:57.120Z,76.60
2022-10-23T01:33:27.346Z,77.75
2022-10-23T01:36:00.062Z,78.59
2022-10-23T01:38:33.239Z,77.41
2022-10-23T01:41:03.337Z,77.46
2022-10-23T01:43:36.942Z,77.57
2022-10-23T01:46:06.387Z,76.50
2022-10-23T01:48:35.215Z,77.33
2022-10-23T01:51:06.349Z,74.98
2022-10-23T01:53:36.818Z,75.88
2022-10-23T01:56:06.890Z,77.22
2022-10-23T01:58:36.118Z,75.31
2022-10-23T02:01:05.710Z,75.45
2022-10-23T02:03:35.534Z,77.17
2022-10-23T02:06:01.992Z,76.32
2022-10-23T02:08:28.525Z,75.97
2022-10-23T02:11:04.356Z,77.39
2022-10-23T02:13:37.876Z,77.25
2022-10-23T02:16:12.048Z,76.21
2022-10-23T02:18:46.072Z,77.96
2022-10-23T02:21:17.683Z,76.68
2022-10-23T02:23:52.578Z,75.15
2022-10-23T02:26:26.564Z,75.16
2022-10-23T02:28:59.734Z,75.74
2022-10-23T02:31:26.264Z,77.43
2022-10-23T02:33:52.787Z,75.65
2022-10-23T02:36:19.505Z,76.38
2022-10-23T02:38:46.195Z,78.24
2022-10-23T02:41:35.519Z,77.80
2022-10-23T02:44:12.055Z,76.38
2022-10-23T02:46:50.620Z,75.65
2022-10-23T02:49:21.656Z,75.41
2022-10-23T02:51:57.197Z,74.56
2022-10-23T02:54:35.165Z,74.49
2022-10-23T02:57:09.356Z,74.71
2022-10-23T02:59:43.564Z,77.63
2022-10-23T03:02:17.908Z,76.62
2022-10-23T03:04:45.554Z,78.43
2022-10-23T03:07:14.176Z,77.44
2022-10-23T03:09:40.607Z,77.48
2022-10-23T03:12:07.078Z,76.47
2022-10-23T03:14:33.482Z,76.00
2022-10-23T03:17:01.366Z,76.25
2022-10-23T03:19:27.941Z,77.53
2022-10-23T03:21:54.376Z,77.35
2022-10-23T03:24:20.808Z,76.63
2022-10-23T03:26:47.208Z,75.62
2022-10-23T03:29:13.592Z,76.31
2022-10-23T03:31:40.005Z,76.90
2022-10-23T03:34:08.227Z,77.22
2022-10-23T03:36:34.919Z,76.43
2022-10-23T03:39:01.424Z,76.05
2022-10-23T03:41:27.985Z,76.15
2022-10-23T03:43:54.494Z,76.61
2022-10-23T03:46:20.962Z,75.79
2022-10-23T03:48:47.378Z,76.28
2022-10-23T03:51:15.204Z,75.33
2022-10-23T03:53:41.783Z,78.23
2022-10-23T03:56:08.262Z,76.88
2022-10-23T03:58:34.656Z,78.77
2022-10-23T04:01:01.449Z,77.96
2022-10-23T04:03:27.861Z,75.68
2022-10-23T04:05:54.276Z,75.39
2022-10-23T04:08:22.019Z,76.64
2022-10-23T04:10:48.410Z,77.35
2022-10-23T04:13:14.920Z,76.01
2022-10-23T04:15:41.348Z,76.52
2022-10-23T04:18:07.937Z,77.77
2022-10-23T04:20:34.423Z,76.52
2022-10-23T04:23:01.160Z,77.78
2022-10-23T04:25:29.048Z,77.55
2022-10-23T04:27:55.451Z,76.91
2022-10-23T04:30:21.880Z,76.27
2022-10-23T04:32:50.214Z,75.99
2022-10-23T04:35:16.851Z,75.40
2022-10-23T04:37:43.565Z,75.27
2022-10-23T04:40:10.521Z,74.90
2022-10-23T04:42:38.262Z,74.42
2022-10-23T04:45:05.633Z,74.74
2022-10-23T04:47:32.193Z,74.73
2022-10-23T04:49:58.720Z,74.52
2022-10-23T04:52:25.264Z,74.92
2022-10-23T04:54:51.895Z,75.75
2022-10-23T04:57:18.340Z,75.62
2022-10-23T04:59:46.160Z,76.03
2022-10-23T05:02:12.558Z,77.81
2022-10-23T05:04:39.124Z,76.25
2022-10-23T05:07:05.575Z,76.03
2022-10-23T05:09:31.984Z,76.40
2022-10-23T05:11:58.454Z,77.28
2022-10-23T05:14:24.932Z,76.76
2022-10-23T05:16:57.334Z,76.09
2022-10-23T05:19:27.316Z,77.34
2022-10-23T05:21:55.105Z,77.87
2022-10-23T05:24:21.896Z,77.70
2022-10-23T05:26:48.457Z,77.62
2022-10-23T05:29:14.873Z,77.61
2022-10-23T05:31:41.271Z,76.50
2022-10-23T05:34:13.325Z,76.17
2022-10-23T05:36:40.112Z,75.62
2022-10-23T05:39:06.578Z,74.97
2022-10-23T05:41:33.001Z,76.13
2022-10-23T05:43:59.381Z,76.01
2022-10-23T05:46:25.852Z,75.66
2022-10-23T05:48:52.932Z,75.45
2022-10-23T05:51:21.465Z,75.21
2022-10-23T05:53:48.171Z,76.55
2022-10-23T05:56:14.658Z,75.71
2022-10-23T05:58:41.191Z,75.43
2022-10-23T06:01:08.689Z,76.51
2022-10-23T06:03:35.726Z,77.06
2022-10-23T06:06:02.236Z,79.29
2022-10-23T06:08:30.613Z,79.54
2022-10-23T06:10:57.191Z,80.78
2022-10-23T06:13:23.641Z,79.92
2022-10-23T06:15:50.110Z,78.85
2022-10-23T06:18:16.561Z,77.75
2022-10-23T06:20:42.951Z,76.22
2022-10-23T06:23:09.367Z,77.10
2022-10-23T06:25:37.128Z,77.56
2022-10-23T06:28:03.541Z,77.32
2022-10-23T06:30:30.040Z,77.01
2022-10-23T06:32:56.613Z,76.33
2022-10-23T06:35:23.050Z,76.43
2022-10-23T06:37:49.444Z,76.32
2022-10-23T06:40:15.967Z,77.05
2022-10-23T06:42:44.004Z,78.56
2022-10-23T06:45:10.612Z,78.49
2022-10-23T06:47:37.007Z,79.70
2022-10-23T06:50:04.032Z,79.14
2022-10-23T06:52:45.824Z,80.09
2022-10-23T06:55:12.723Z,79.36
2022-10-23T06:57:39.105Z,80.35
2022-10-23T07:00:08.651Z,78.80
2022-10-23T07:02:35.378Z,80.24
2022-10-23T07:05:01.834Z,79.85
2022-10-23T07:07:29.322Z,77.14
2022-10-23T07:09:55.915Z,77.24
2022-10-23T07:12:22.575Z,77.80
2022-10-23T07:14:49.020Z,80.19
2022-10-23T07:17:16.881Z,80.15
2022-10-23T07:19:43.272Z,79.18
2022-10-23T07:22:11.960Z,76.45
2022-10-23T07:24:41.415Z,76.10
2022-10-23T07:27:07.904Z,79.02
2022-10-23T07:29:34.300Z,80.18
2022-10-23T07:32:00.739Z,81.20
2022-10-23T07:34:28.491Z,81.41
2022-10-23T07:36:54.922Z,80.48
2022-10-23T07:39:21.354Z,80.70
2022-10-23T07:41:47.807Z,80.20
2022-10-23T07:44:14.253Z,78.50
2022-10-23T07:46:40.723Z,77.87
2022-10-23T07:49:07.120Z,78.10
2022-10-23T07:51:34.853Z,78.14
2022-10-23T07:54:01.287Z,78.88
2022-10-23T07:56:28.323Z,77.49
2022-10-23T07:58:54.716Z,77.19
2022-10-23T08:01:34.201Z,76.95
2022-10-23T08:04:00.971Z,77.51
2022-10-23T08:06:27.443Z,76.61
2022-10-23T08:08:55.289Z,77.93
2022-10-23T08:11:24.609Z,75.73
2022-10-23T08:13:51.907Z,76.58
2022-10-23T08:16:18.484Z,75.84
2022-10-23T08:18:44.885Z,76.84
2022-10-23T08:21:11.987Z,78.59
2022-10-23T08:23:38.503Z,76.61
2022-10-23T08:26:06.933Z,77.61
2022-10-23T08:28:33.920Z,77.22
2022-10-23T08:31:07.995Z,77.70
2022-10-23T08:33:34.529Z,78.27
2022-10-23T08:36:01.011Z,75.12
2022-10-23T08:38:27.446Z,75.90
2022-10-23T08:40:53.931Z,77.48
2022-10-23T08:43:29.877Z,75.67
2022-10-23T08:46:00.997Z,75.16
2022-10-23T08:48:33.026Z,74.54
2022-10-23T08:51:05.409Z,74.70
2022-10-23T08:53:39.842Z,73.60
2022-10-23T08:56:14.077Z,76.67
2022-10-23T08:58:46.828Z,77.36
2022-10-23T09:01:37.527Z,76.42
2022-10-23T09:04:05.154Z,75.15
2022-10-23T09:06:36.436Z,75.54
2022-10-23T09:09:18.150Z,73.66
2022-10-23T09:11:53.854Z,75.93
2022-10-23T09:14:50.457Z,73.58
2022-10-23T09:17:24.583Z,73.50
2022-10-23T09:19:59.269Z,74.76
2022-10-23T09:22:27.077Z,74.23
2022-10-23T09:24:54.019Z,72.01
2022-10-23T09:27:20.655Z,72.68
2022-10-23T09:29:51.635Z,70.83
2022-10-23T09:32:18.818Z,73.17
2022-10-23T09:34:54.062Z,71.78
2022-10-23T09:37:23.598Z,70.77
2022-10-23T09:40:01.356Z,71.39
2022-10-23T09:42:27.904Z,73.56
2022-10-23T09:44:55.802Z,71.72
2022-10-23T09:47:24.603Z,70.64
2022-10-23T09:49:52.703Z,67.84
2022-10-23T09:52:25.361Z,70.94
2022-10-23T09:54:55.708Z,71.13
2022-10-23T09:57:27.194Z,67.55
2022-10-23T09:59:57.132Z,68.88
2022-10-23T10:02:28.778Z,69.21
2022-10-23T10:04:55.459Z,70.39
2022-10-23T10:07:24.877Z,68.80
2022-10-23T10:09:53.122Z,70.75
2022-10-23T10:12:36.860Z,72.67
2022-10-23T10:15:18.114Z,70.13
2022-10-23T10:17:57.009Z,69.83
2022-10-23T10:20:43.408Z,71.57
2022-10-23T10:23:17.906Z,69.87
2022-10-23T10:25:53.170Z,70.35
2022-10-23T10:28:30.326Z,71.69
2022-10-23T10:31:08.894Z,71.48
2022-10-23T10:33:42.615Z,70.91
2022-10-23T10:36:18.335Z,71.91
2022-10-23T10:38:48.957Z,71.65
2022-10-23T10:41:32.406Z,72.00
2022-10-23T10:44:12.647Z,70.60
2022-10-23T10:46:47.725Z,69.36
2022-10-23T10:49:19.934Z,71.32
2022-10-23T10:51:54.881Z,72.64
2022-10-23T10:54:37.130Z,72.04
2022-10-23T10:57:12.940Z,71.64
2022-10-23T10:59:44.664Z,69.68
2022-10-23T11:02:23.457Z,70.46
2022-10-23T11:04:56.245Z,70.98
2022-10-23T11:07:29.292Z,68.09
2022-10-23T11:09:59.756Z,66.57
2022-10-23T11:12:27.921Z,67.40
2022-10-23T11:14:55.211Z,68.36
2022-10-23T11:17:26.773Z,66.64
2022-10-23T11:20:01.658Z,66.19
2022-10-23T11:22:35.797Z,64.72
2022-10-23T11:25:31.962Z,66.31
2022-10-23T11:28:13.109Z,66.44
2022-10-23T11:30:54.358Z,64.87
2022-10-23T11:33:52.562Z,65.31
2022-10-23T11:36:20.456Z,65.87
2022-10-23T11:38:49.370Z,65.15
2022-10-23T11:41:25.350Z,63.71
2022-10-23T11:43:55.471Z,64.38
2022-10-23T11:46:39.620Z,63.94
2022-10-23T11:49:20.601Z,64.81
2022-10-23T11:51:47.035Z,65.68
2022-10-23T11:54:21.730Z,64.91
2022-10-23T11:56:53.735Z,64.45
2022-10-23T11:59:25.762Z,62.03
2022-10-23T12:01:54.448Z,61.61
2022-10-23T12:04:26.178Z,62.11
2022-10-23T12:06:55.950Z,61.35
2022-10-23T12:09:26.643Z,63.22
2022-10-23T12:12:14.778Z,62.30
2022-10-23T12:14:43.439Z,62.95
2022-10-23T12:17:29.594Z,60.36
2022-10-23T12:20:04.348Z,61.08
2022-10-23T12:22:42.012Z,61.99
2022-10-23T12:25:14.586Z,61.07
2022-10-23T12:27:47.406Z,62.27
2022-10-23T12:30:22.513Z,59.64
2022-10-23T12:33:11.409Z,61.39
2022-10-23T12:36:09.189Z,63.70
2022-10-23T12:38:44.113Z,62.11
2022-10-23T12:41:14.136Z,60.75
2022-10-23T12:43:44.125Z,61.51
2022-10-23T12:46:27.587Z,61.32
2022-10-23T12:48:55.964Z,61.97
2022-10-23T12:51:24.977Z,61.96
2022-10-23T12:53:51.571Z,62.89
2022-10-23T12:56:18.938Z,64.18
2022-10-23T12:58:49.501Z,63.37
2022-10-23T13:01:23.972Z,62.08
2022-10-23T13:03:52.295Z,63.91
2022-10-23T13:06:19.216Z,62.89
2022-10-23T13:08:48.176Z,64.26
2022-10-23T13:11:17.222Z,64.03
2022-10-23T13:13:44.023Z,63.89
2022-10-23T13:16:14.492Z,64.58
2022-10-23T13:18:41.683Z,62.59
2022-10-23T13:21:16.481Z,64.00
2022-10-23T13:23:43.534Z,64.01
2022-10-23T13:26:25.544Z,65.01
2022-10-23T13:28:52.692Z,65.85
2022-10-23T13:31:30.136Z,65.00
2022-10-23T13:34:16.735Z,65.79
2022-10-23T13:36:53.554Z,66.32
2022-10-23T13:39:24.250Z,64.33
2022-10-23T13:41:52.124Z,65.02
2022-10-23T13:44:20.081Z,64.50
2022-10-23T13:46:47.055Z,63.12
2022-10-23T13:49:13.458Z,63.72
2022-10-23T13:51:44.379Z,64.60
2022-10-23T13:54:15.021Z,62.65
2022-10-23T13:56:41.489Z,64.61
2022-10-23T13:59:10.762Z,64.13
2022-10-23T14:01:37.327Z,63.85
2022-10-23T14:04:05.252Z,62.73
2022-10-23T14:06:32.044Z,63.79
2022-10-23T14:08:58.859Z,63.47
2022-10-23T14:11:25.954Z,63.00
2022-10-23T14:13:52.334Z,64.36
2022-10-23T14:16:20.696Z,63.24
2022-10-23T14:18:47.457Z,63.21
2022-10-23T14:21:16.463Z,62.71
2022-10-23T14:23:42.867Z,62.12
2022-10-23T14:26:11.771Z,62.13
2022-10-23T14:28:38.807Z,64.87
2022-10-23T14:31:06.444Z,63.17
2022-10-23T14:33:34.230Z,64.38
2022-10-23T14:36:00.928Z,66.23
2022-10-23T14:38:27.966Z,64.13
2022-10-23T14:40:54.372Z,65.38
2022-10-23T14:43:21.189Z,65.32
2022-10-23T14:45:47.896Z,62.60
2022-10-23T14:48:14.301Z,64.42
2022-10-23T14:50:45.392Z,63.69
2022-10-23T14:53:11.941Z,66.71
2022-10-23T14:55:39.054Z,63.62
2022-10-23T14:58:05.907Z,64.54
2022-10-23T15:00:32.554Z,63.24
2022-10-23T15:02:59.427Z,63.96
2022-10-23T15:05:26.020Z,63.74
2022-10-23T15:07:54.808Z,65.30
2022-10-23T15:10:21.251Z,64.65
2022-10-23T15:12:47.784Z,66.14
2022-10-23T15:15:14.212Z,66.66
2022-10-23T15:17:40.597Z,65.91
2022-10-23T15:20:07.540Z,64.96
2022-10-23T15:22:33.968Z,66.21
2022-10-23T15:25:01.704Z,65.06
2022-10-23T15:27:28.128Z,65.83
2022-10-23T15:29:54.529Z,65.51
2022-10-23T15:32:20.941Z,66.45
2022-10-23T15:34:47.340Z,67.13
2022-10-23T15:37:13.981Z,66.30
2022-10-23T15:39:40.392Z,66.10
2022-10-23T15:42:08.116Z,65.31
2022-10-23T15:44:34.810Z,64.82
2022-10-23T15:47:01.462Z,63.41
2022-10-23T15:49:28.740Z,64.05
2022-10-23T15:51:55.265Z,65.03
2022-10-23T15:54:22.633Z,64.73
2022-10-23T15:56:50.854Z,65.31
2022-10-23T15:59:20.611Z,66.33
2022-10-23T16:01:47.300Z,67.53
2022-10-23T16:04:14.002Z,68.23
2022-10-23T16:06:40.431Z,68.16
2022-10-23T16:09:06.876Z,69.06
2022-10-23T16:11:35.545Z,69.71
2022-10-23T16:14:01.983Z,70.24
2022-10-23T16:16:30.307Z,70.07
2022-10-23T16:18:58.807Z,69.28
2022-10-23T16:21:27.758Z,70.32
2022-10-23T16:23:56.141Z,68.96
2022-10-23T16:26:23.395Z,67.51
2022-10-23T16:28:52.705Z,68.23
2022-10-23T16:31:23.835Z,67.89
2022-10-23T16:33:52.410Z,66.67
2022-10-23T16:36:19.645Z,67.66
2022-10-23T16:38:46.152Z,68.26
2022-10-23T16:41:12.556Z,67.73
2022-10-23T16:43:39.150Z,66.54
2022-10-23T16:46:07.268Z,66.14
2022-10-23T16:48:34.931Z,65.92
2022-10-23T16:51:05.808Z,67.09
2022-10-23T16:53:32.551Z,68.53
2022-10-23T16:55:59.100Z,68.77
2022-10-23T16:58:26.238Z,68.18
2022-10-23T17:00:57.184Z,68.82
2022-10-23T17:03:23.707Z,69.47
2022-10-23T17:05:50.168Z,70.13
2022-10-23T17:08:17.879Z,70.03
2022-10-23T17:10:44.344Z,68.36
2022-10-23T17:13:10.819Z,69.24
2022-10-23T17:15:37.266Z,68.23
2022-10-23T17:18:03.832Z,68.36
2022-10-23T17:20:30.267Z,67.87
2022-10-23T17:23:17.940Z,68.92
2022-10-23T17:25:44.347Z,68.97
2022-10-23T17:28:10.749Z,68.65
2022-10-23T17:30:37.725Z,68.58
2022-10-23T17:33:04.166Z,66.94
2022-10-23T17:35:30.573Z,67.02
2022-10-23T17:37:56.974Z,66.43
2022-10-23T17:40:25.266Z,65.78
2022-10-23T17:42:51.784Z,65.88
2022-10-23T17:45:18.181Z,65.45
2022-10-23T17:47:44.632Z,66.59
2022-10-23T17:50:11.041Z,65.44
2022-10-23T17:52:37.719Z,66.53
2022-10-23T17:55:04.852Z,65.82
2022-10-23T17:57:32.609Z,66.02
2022-10-23T17:59:59.071Z,66.80
2022-10-23T18:02:25.699Z,66.26
2022-10-23T18:04:52.242Z,66.46
2022-10-23T18:07:18.894Z,68.55
2022-10-23T18:09:45.410Z,70.70
2022-10-23T18:12:11.816Z,71.72
2022-10-23T18:14:39.602Z,71.59
2022-10-23T18:17:06.034Z,72.70
2022-10-23T18:19:32.471Z,73.67
2022-10-23T18:21:58.965Z,71.74
2022-10-23T18:24:25.427Z,70.93
2022-10-23T18:26:52.175Z,70.95
2022-10-23T18:29:18.608Z,71.22
2022-10-23T18:31:46.580Z,72.82
2022-10-23T18:34:17.026Z,72.92
2022-10-23T18:36:43.837Z,71.86
2022-10-23T18:39:13.584Z,71.42
2022-10-23T18:41:42.069Z,71.79
2022-10-23T18:44:10.454Z,71.64
2022-10-23T18:46:37.448Z,74.38
2022-10-23T18:49:05.484Z,74.82
2022-10-23T18:51:33.771Z,74.92
2022-10-23T18:54:01.938Z,74.54
2022-10-23T18:56:28.384Z,76.17
2022-10-23T18:58:57.147Z,77.22
2022-10-23T19:01:25.979Z,76.99
2022-10-23T19:03:53.405Z,79.50
2022-10-23T19:06:23.133Z,77.74
2022-10-23T19:08:49.982Z,77.57
2022-10-23T19:11:18.919Z,79.24
2022-10-23T19:13:45.338Z,78.15
2022-10-23T19:16:15.891Z,77.70
2022-10-23T19:18:47.023Z,78.28
2022-10-23T19:21:13.953Z,81.08
2022-10-23T19:23:43.002Z,79.38
2022-10-23T19:26:12.238Z,81.41
2022-10-23T19:28:42.011Z,81.79
2022-10-23T19:31:09.191Z,82.45
2022-10-23T19:33:36.086Z,80.95
2022-10-23T19:36:05.413Z,81.08
2022-10-23T19:38:33.031Z,83.27
2022-10-23T19:41:00.832Z,83.19
2022-10-23T19:43:27.541Z,82.37
2022-10-23T19:45:53.967Z,87.80
2022-10-23T19:48:20.412Z,85.07
2022-10-23T19:50:46.840Z,83.91
2022-10-23T19:53:13.284Z,84.68
2022-10-23T19:55:39.663Z,86.00
2022-10-23T19:58:07.403Z,84.54
2022-10-23T20:00:33.855Z,86.45
2022-10-23T20:03:00.244Z,84.58
2022-10-23T20:05:27.094Z,83.72
2022-10-23T20:07:53.668Z,84.56
2022-10-23T20:10:20.148Z,85.31
2022-10-23T20:12:56.389Z,83.84
2022-10-23T20:15:24.765Z,82.78
2022-10-23T20:17:51.152Z,84.33
2022-10-23T20:20:17.967Z,85.52
2022-10-23T20:22:44.430Z,85.35
2022-10-23T20:25:10.856Z,83.35
2022-10-23T20:30:09.907Z,87.44
2022-10-23T20:32:37.811Z,88.23
2022-10-23T20:35:04.822Z,87.23
2022-10-23T20:37:31.905Z,87.36
2022-10-23T20:39:58.295Z,88.22
2022-10-23T20:42:24.662Z,88.66
2022-10-23T20:44:51.058Z,89.40
2022-10-23T20:47:17.452Z,87.76
2022-10-23T20:49:45.188Z,90.71
2022-10-23T20:52:11.596Z,91.03
2022-10-23T20:54:38.004Z,90.53
2022-10-23T20:57:04.435Z,86.19
2022-10-23T20:59:30.846Z,85.03
2022-10-23T21:01:57.424Z,87.45
2022-10-23T21:04:26.059Z,87.20
2022-10-23T21:07:09.576Z,88.44
2022-10-23T21:09:37.427Z,86.67
2022-10-23T21:12:04.594Z,84.49
2022-10-23T21:14:31.014Z,83.54
2022-10-23T21:16:57.453Z,84.04
2022-10-23T21:19:23.875Z,86.38
2022-10-23T21:21:50.261Z,85.00
2022-10-23T21:24:18.021Z,88.94
2022-10-23T21:26:45.261Z,86.95
2022-10-23T21:29:18.541Z,84.57
2022-10-23T21:31:50.601Z,85.15
2022-10-23T21:34:16.995Z,83.48
2022-10-23T21:37:00.185Z,82.01
2022-10-23T21:39:31.216Z,84.00
2022-10-23T21:41:57.631Z,86.09
2022-10-23T21:44:24.035Z,85.76
2022-10-23T21:46:50.431Z,83.98
2022-10-23T21:49:16.931Z,86.88
2022-10-23T21:51:43.317Z,85.12
2022-10-23T21:54:12.604Z,84.31
2022-10-23T21:56:43.368Z,83.21
2022-10-23T21:59:12.743Z,86.58
2022-10-23T22:01:39.556Z,83.89
2022-10-23T22:04:06.037Z,86.47
2022-10-23T22:06:32.430Z,86.27
2022-10-23T22:09:00.879Z,87.49
2022-10-23T22:11:28.004Z,86.72
2022-10-23T22:13:56.611Z,87.32
2022-10-23T22:16:23.128Z,89.22
2022-10-23T22:18:49.950Z,88.79
2022-10-23T22:21:19.265Z,88.14
2022-10-23T22:23:46.292Z,87.72
2022-10-23T22:26:20.599Z,88.49
2022-10-23T22:28:46.997Z,87.63
2022-10-23T22:31:16.432Z,89.83
2022-10-23T22:33:43.156Z,88.69
2022-10-23T22:36:10.063Z,87.87
2022-10-23T22:38:36.467Z,89.80
2022-10-23T22:41:04.300Z,86.89
2022-10-23T22:43:30.850Z,86.39
2022-10-23T22:46:02.837Z,87.42
2022-10-23T22:48:30.678Z,88.26
2022-10-23T22:50:57.182Z,88.18
2022-10-23T22:53:23.670Z,88.46
2022-10-23T22:55:50.327Z,90.98
2022-10-23T22:58:16.764Z,87.45
2022-10-23T23:00:43.740Z,89.23
2022-10-23T23:03:10.453Z,89.72
2022-10-23T23:08:14.770Z,87.87
2022-10-23T23:10:41.389Z,86.80
2022-10-23T23:13:07.989Z,86.58
2022-10-23T23:15:39.740Z,86.88
2022-10-23T23:18:06.285Z,86.99
2022-10-23T23:20:34.286Z,85.70
2022-10-23T23:23:02.171Z,87.14
2022-10-23T23:25:29.228Z,85.53
2022-10-23T23:27:55.635Z,83.81
2022-10-23T23:30:22.678Z,85.69
2022-10-23T23:32:49.699Z,84.45
2022-10-23T23:35:16.261Z,83.95
2022-10-23T23:37:42.699Z,82.27
2022-10-23T23:40:12.176Z,82.06
2022-10-23T23:42:38.715Z,84.35
2022-10-23T23:45:14.398Z,81.71
2022-10-23T23:47:41.784Z,82.88
2022-10-23T23:50:10.017Z,83.78
2022-10-23T23:52:36.473Z,83.71
2022-10-23T23:55:03.431Z,83.77
2022-10-23T23:57:31.404Z,86.36
2022-10-23T23:59:57.946Z,85.03
